Time;durP1;ratioP1;P1;durP2;ratioP2;P2;SDS_P1;SDS_P2;PMS_P1;PMS_P2;Temp;Humidity;BMP_temperature;BMP_pressure;BME280_temperature;BME280_humidity;BME280_pressure;Samples;Min_cycle;Max_cycle;Signal;HPM_P1;HPM_P2
2021/11/19 00:01:20;;;;;;;2.28;0.50;;;20.40;69.70;;;;;;5010089;28;96392;-59
2021/11/19 00:03:53;;;;;;;0.82;0.50;;;20.50;69.80;;;;;;5017856;28;95781;-59
2021/11/19 00:06:26;;;;;;;0.93;0.68;;;20.60;69.70;;;;;;5017912;28;94952;-56
2021/11/19 00:08:58;;;;;;;0.30;0.30;;;20.60;69.70;;;;;;5018254;28;95247;-64
2021/11/19 00:11:34;;;;;;;1.35;0.57;;;20.70;69.70;;;;;;5018546;28;96418;-62
2021/11/19 00:14:08;;;;;;;0.90;0.52;;;20.70;69.60;;;;;;5017499;28;95773;-65
2021/11/19 00:16:43;;;;;;;1.25;0.80;;;20.80;69.60;;;;;;5017781;28;95040;-58
2021/11/19 00:19:18;;;;;;;1.05;0.60;;;20.80;69.60;;;;;;5017585;28;95155;-64
2021/11/19 00:21:51;;;;;;;1.40;0.63;;;20.90;69.60;;;;;;5017541;28;95425;-59
2021/11/19 00:24:23;;;;;;;0.70;0.65;;;20.90;69.50;;;;;;4999962;28;95814;-64
2021/11/19 00:26:57;;;;;;;0.50;0.50;;;21.00;69.40;;;;;;5017952;28;94991;-64
2021/11/19 00:29:31;;;;;;;0.95;0.75;;;21.00;69.50;;;;;;5017577;28;95181;-60
2021/11/19 00:32:04;;;;;;;0.60;0.50;;;21.00;69.30;;;;;;5017440;28;95175;-60
2021/11/19 00:34:38;;;;;;;0.85;0.68;;;21.10;69.30;;;;;;5017119;28;95701;-57
2021/11/19 00:37:11;;;;;;;0.40;0.40;;;21.10;69.10;;;;;;5012272;28;95169;-65
2021/11/19 00:39:46;;;;;;;0.95;0.57;;;21.20;69.10;;;;;;5015465;28;95166;-63
2021/11/19 00:42:20;;;;;;;0.40;0.40;;;21.20;69.00;;;;;;5017251;28;96421;-56
2021/11/19 00:44:53;;;;;;;0.50;0.50;;;21.30;69.00;;;;;;5017246;28;95864;-59
2021/11/19 00:47:25;;;;;;;0.45;0.45;;;21.40;69.00;;;;;;5000441;28;95046;-63
2021/11/19 00:50:00;;;;;;;1.00;0.75;;;21.40;68.90;;;;;;5019000;28;95073;-66
2021/11/19 00:52:33;;;;;;;1.15;0.60;;;21.40;68.80;;;;;;5018277;28;96380;-67
2021/11/19 00:55:06;;;;;;;0.50;0.40;;;21.50;68.80;;;;;;5018551;28;95793;-65
2021/11/19 00:57:37;;;;;;;1.55;0.60;;;21.50;68.70;;;;;;5019396;28;94902;-62
2021/11/19 01:00:14;;;;;;;1.05;0.65;;;21.60;68.70;;;;;;5022379;28;95145;-63
2021/11/19 01:02:49;;;;;;;;;;;21.60;68.70;;;;;;5021514;28;96066;-61
2021/11/19 01:05:21;;;;;;;0.90;0.65;;;21.60;68.70;;;;;;5021158;28;95880;-60
2021/11/19 01:07:52;;;;;;;0.95;0.63;;;21.70;68.60;;;;;;5020809;28;94924;-63
2021/11/19 01:10:29;;;;;;;0.50;0.50;;;21.70;68.50;;;;;;5020572;28;95320;-58
2021/11/19 01:13:03;;;;;;;0.50;0.50;;;21.80;68.50;;;;;;5020565;28;96427;-60
2021/11/19 01:15:43;;;;;;;0.60;0.60;;;21.80;68.40;;;;;;5020342;28;95781;-63
2021/11/19 01:18:25;;;;;;;0.52;0.52;;;21.80;68.30;;;;;;5020282;28;94934;-64
2021/11/19 01:21:11;;;;;;;0.88;0.63;;;21.90;68.30;;;;;;5020380;28;95160;-60
2021/11/19 01:23:44;;;;;;;0.70;0.60;;;21.90;68.10;;;;;;5019796;28;96403;-57
2021/11/19 01:26:24;;;;;;;0.80;0.73;;;22.00;68.20;;;;;;5020205;28;96021;-64
2021/11/19 01:29:02;;;;;;;0.47;0.40;;;22.00;68.10;;;;;;5020400;28;94958;-64
2021/11/19 01:31:41;;;;;;;0.90;0.65;;;22.10;67.80;;;;;;5002146;28;95394;-63
2021/11/19 01:34:26;;;;;;;1.07;0.77;;;21.90;65.00;;;;;;5014434;28;96510;-65
2021/11/19 01:37:13;;;;;;;1.13;0.65;;;21.70;64.90;;;;;;5013068;28;95915;-64
2021/11/19 01:39:57;;;;;;;1.60;0.65;;;21.50;65.40;;;;;;5000592;28;95054;-64
2021/11/19 01:42:52;;;;;;;0.60;0.60;;;21.50;65.60;;;;;;5020326;28;95268;-64
2021/11/19 01:45:39;;;;;;;1.17;0.90;;;21.30;65.70;;;;;;5020222;28;96436;-63
2021/11/19 01:48:16;;;;;;;1.40;0.80;;;21.30;65.80;;;;;;5020137;28;95938;-63
2021/11/19 01:50:50;;;;;;;0.88;0.88;;;21.30;66.00;;;;;;5021404;28;94927;-63
2021/11/19 01:53:31;;;;;;;1.23;0.70;;;21.20;66.10;;;;;;5020789;28;95293;-63
2021/11/19 01:56:17;;;;;;;3.90;0.90;;;21.20;66.20;;;;;;5003163;28;96401;-63
2021/11/19 01:58:55;;;;;;;1.10;0.82;;;21.10;66.10;;;;;;5019990;28;95809;-62
2021/11/19 02:01:35;;;;;;;2.45;0.70;;;21.10;66.20;;;;;;5019750;28;94942;-64
2021/11/19 02:04:15;;;;;;;1.48;0.50;;;21.10;64.80;;;;;;5020365;28;95344;-63
2021/11/19 02:07:15;;;;;;;1.02;0.70;;;21.00;65.20;;;;;;5001156;28;98424;-65
2021/11/19 02:10:46;;;;;;;0.70;0.68;;;21.00;66.40;;;;;;5017798;28;95786;-58
2021/11/19 02:13:36;;;;;;;1.98;1.88;;;21.00;65.30;;;;;;4993967;28;95013;-58
2021/11/19 02:16:20;;;;;;;4.57;3.70;;;21.00;66.70;;;;;;5019873;28;95289;-60
2021/11/19 02:19:10;;;;;;;2.47;0.60;;;21.00;66.90;;;;;;5019211;28;96364;-60
2021/11/19 02:22:09;;;;;;;1.15;0.70;;;21.10;67.00;;;;;;5000839;28;95469;-55
2021/11/19 02:24:47;;;;;;;2.40;0.68;;;21.10;66.90;;;;;;5013362;28;96227;-58
2021/11/19 02:27:46;;;;;;;0.85;0.82;;;21.10;67.00;;;;;;5001145;28;95369;-51
2021/11/19 02:30:33;;;;;;;1.35;0.55;;;21.10;67.00;;;;;;5012641;28;96407;-55
2021/11/19 02:33:09;;;;;;;1.58;0.90;;;21.10;67.10;;;;;;5019147;28;95790;-60
2021/11/19 02:36:06;;;;;;;1.25;0.70;;;21.10;66.90;;;;;;5000281;28;95327;-60
2021/11/19 02:38:55;;;;;;;2.15;0.80;;;21.20;66.90;;;;;;5009258;28;95263;-60
2021/11/19 02:41:30;;;;;;;0.95;0.85;;;21.20;66.90;;;;;;5001464;28;96573;-59
2021/11/19 02:44:06;;;;;;;0.80;0.60;;;21.10;66.90;;;;;;5018802;28;95868;-61
2021/11/19 02:46:48;;;;;;;1.48;0.90;;;21.10;66.90;;;;;;5019613;28;94941;-61
2021/11/19 02:49:22;;;;;;;1.17;0.70;;;21.10;67.00;;;;;;5020621;28;95152;-60
2021/11/19 02:51:56;;;;;;;1.02;0.52;;;21.10;67.60;;;;;;5019838;28;96399;-59
2021/11/19 02:54:36;;;;;;;1.45;0.63;;;21.10;67.10;;;;;;5019274;28;96063;-60
2021/11/19 02:57:10;;;;;;;1.50;0.80;;;21.10;67.00;;;;;;4994317;28;95089;-60
2021/11/19 02:59:41;;;;;;;;;;;21.10;67.10;;;;;;5001283;28;95353;-59
2021/11/19 03:02:20;;;;;;;2.03;0.70;;;21.10;67.20;;;;;;5020316;28;96341;-67
2021/11/19 03:04:59;;;;;;;0.50;0.50;;;21.10;67.20;;;;;;5000927;28;95869;-63
2021/11/19 03:07:33;;;;;;;0.47;0.38;;;21.20;67.30;;;;;;5019281;28;94962;-66
2021/11/19 03:10:13;;;;;;;0.93;0.60;;;21.30;67.20;;;;;;5000600;28;95484;-61
2021/11/19 03:12:45;;;;;;;0.82;0.70;;;21.40;67.20;;;;;;5018543;28;96838;-62
2021/11/19 03:15:29;;;;;;;3.78;2.17;;;21.60;67.20;;;;;;5018054;28;96149;-59
2021/11/19 03:18:03;;;;;;;1.52;1.40;;;21.70;67.20;;;;;;5018442;28;94916;-60
2021/11/19 03:20:37;;;;;;;1.75;0.63;;;21.70;67.10;;;;;;4983981;28;95359;-64
2021/11/19 03:23:08;;;;;;;0.90;0.90;;;21.80;67.10;;;;;;5018155;28;96433;-65
2021/11/19 03:25:43;;;;;;;1.52;0.60;;;21.90;67.10;;;;;;5018284;28;95726;-63
2021/11/19 03:28:21;;;;;;;1.48;1.40;;;22.00;67.20;;;;;;5018849;28;94905;-60
2021/11/19 03:30:56;;;;;;;0.70;0.70;;;22.10;67.20;;;;;;4999247;28;95405;-65
2021/11/19 03:33:34;;;;;;;1.98;0.90;;;22.10;67.10;;;;;;4999862;28;96860;-62
2021/11/19 03:36:08;;;;;;;3.03;1.00;;;22.10;65.40;;;;;;5016368;28;95844;-61
2021/11/19 03:38:48;;;;;;;0.70;0.70;;;22.00;65.50;;;;;;5017497;28;95018;-61
2021/11/19 03:41:24;;;;;;;1.05;0.80;;;21.90;65.90;;;;;;5018166;28;95258;-61
2021/11/19 03:44:03;;;;;;;0.57;0.52;;;21.80;66.00;;;;;;5018031;28;96399;-60
2021/11/19 03:46:51;;;;;;;0.80;0.50;;;21.80;66.00;;;;;;5000392;28;95829;-60
2021/11/19 03:49:23;;;;;;;0.55;0.55;;;21.80;66.10;;;;;;5018825;28;95115;-61
2021/11/19 03:52:24;;;;;;;0.60;0.60;;;21.70;66.10;;;;;;5019587;28;95038;-60
2021/11/19 03:55:00;;;;;;;2.45;1.23;;;21.70;66.10;;;;;;5013967;28;96532;-60
2021/11/19 03:57:31;;;;;;;1.95;1.13;;;21.50;61.10;;;;;;5018592;28;95951;-56
2021/11/19 04:00:13;;;;;;;4.60;1.50;;;21.10;60.00;;;;;;4993304;28;94929;-58
2021/11/19 04:02:50;;;;;;;2.20;1.58;;;21.00;61.00;;;;;;4984506;28;95364;-56
2021/11/19 04:05:28;;;;;;;2.20;1.35;;;21.00;60.40;;;;;;5017520;28;96043;-58
2021/11/19 04:08:03;;;;;;;3.08;1.17;;;21.00;61.00;;;;;;5017693;28;95768;-59
2021/11/19 04:10:47;;;;;;;3.72;1.13;;;21.10;60.20;;;;;;4999465;28;94849;-57
2021/11/19 04:13:18;;;;;;;2.10;1.35;;;21.10;59.70;;;;;;5018323;28;95300;-65
2021/11/19 04:15:54;;;;;;;1.63;1.33;;;21.10;60.40;;;;;;5017602;28;96384;-58
2021/11/19 04:18:28;;;;;;;4.50;1.27;;;21.10;60.20;;;;;;5017576;28;95469;-62
2021/11/19 04:21:00;;;;;;;2.72;2.17;;;21.00;59.40;;;;;;5018065;28;94878;-65
2021/11/19 04:23:32;;;;;;;2.40;2.20;;;21.00;58.80;;;;;;5017617;28;95286;-64
2021/11/19 04:26:06;;;;;;;3.78;1.27;;;20.90;58.90;;;;;;5017437;28;96369;-66
2021/11/19 04:28:40;;;;;;;2.47;0.80;;;21.00;59.70;;;;;;4998786;28;95983;-65
2021/11/19 04:31:27;;;;;;;5.05;1.30;;;21.00;59.60;;;;;;5016301;28;94910;-66
2021/11/19 04:34:01;;;;;;;3.40;1.92;;;21.20;59.10;;;;;;5017410;28;95344;-65
2021/11/19 04:36:35;;;;;;;5.45;1.55;;;21.10;58.70;;;;;;4997841;28;96340;-63
2021/11/19 04:39:11;;;;;;;2.83;1.00;;;21.10;59.20;;;;;;5010036;28;95093;-67
2021/11/19 04:41:44;;;;;;;5.43;4.75;;;21.10;59.40;;;;;;5017111;28;94934;-66
2021/11/19 04:44:20;;;;;;;4.32;1.30;;;21.30;59.00;;;;;;5017637;28;95160;-65
2021/11/19 04:46:51;;;;;;;3.67;1.60;;;21.10;57.90;;;;;;5018401;28;96386;-62
2021/11/19 04:49:24;;;;;;;3.22;1.40;;;21.20;59.10;;;;;;5018213;28;95943;-61
2021/11/19 04:51:58;;;;;;;1.42;1.02;;;21.30;57.20;;;;;;5018175;28;94942;-62
2021/11/19 04:54:32;;;;;;;2.63;1.10;;;21.20;59.10;;;;;;5018314;28;95172;-65
2021/11/19 04:57:06;;;;;;;7.85;1.40;;;21.30;58.60;;;;;;4999840;28;98331;-65
2021/11/19 04:59:38;;;;;;;5.28;1.13;;;21.40;60.30;;;;;;5017071;28;95813;-65
2021/11/19 05:02:20;;;;;;;2.60;1.15;;;21.20;58.50;;;;;;5017545;28;95048;-65
2021/11/19 05:05:04;;;;;;;4.32;1.05;;;21.00;58.20;;;;;;5018190;28;95241;-65
2021/11/19 05:07:42;;;;;;;3.13;0.93;;;20.90;59.20;;;;;;4999141;28;96404;-66
2021/11/19 05:11:03;;;;;;;2.33;0.82;;;20.80;58.40;;;;;;5016841;28;95947;-66
2021/11/19 05:13:39;;;;;;;5.90;1.52;;;20.70;59.90;;;;;;4978445;28;95447;-64
2021/11/19 05:16:13;;;;;;;3.03;1.45;;;20.80;58.90;;;;;;4974846;28;96482;-65
2021/11/19 05:18:46;;;;;;;4.65;1.25;;;20.90;58.90;;;;;;4995106;28;96112;-65
2021/11/19 05:21:19;;;;;;;1.42;0.95;;;20.80;59.20;;;;;;4992027;28;97018;-63
2021/11/19 05:23:50;;;;;;;5.70;1.48;;;21.00;59.90;;;;;;4975331;28;95906;-60
2021/11/19 05:26:21;;;;;;;4.25;1.52;;;21.10;59.40;;;;;;4995074;28;95681;-58
2021/11/19 05:28:52;;;;;;;6.28;1.60;;;21.00;58.90;;;;;;4975500;28;97683;-65
2021/11/19 05:31:24;;;;;;;4.80;1.52;;;20.80;58.70;;;;;;4995142;28;96387;-66
2021/11/19 05:33:57;;;;;;;5.32;1.35;;;20.70;58.40;;;;;;4974668;28;95792;-57
2021/11/19 05:36:28;;;;;;;3.03;0.95;;;20.60;58.70;;;;;;4987740;28;96002;-56
2021/11/19 05:38:59;;;;;;;;;;;20.70;59.30;;;;;;4970993;28;99686;-58
2021/11/19 05:41:38;;;;;;;3.97;1.45;;;20.70;59.60;;;;;;4982177;28;98652;-61
2021/11/19 05:44:09;;;;;;;15.70;6.88;;;20.60;58.90;;;;;;4978576;28;96272;-60
2021/11/19 05:47:16;;;;;;;33.15;20.50;;;20.50;58.30;;;;;;4973381;28;96684;-61
2021/11/19 05:50:00;;;;;;;18.63;10.98;;;20.30;57.80;;;;;;4982836;28;96157;-58
2021/11/19 05:52:33;;;;;;;17.42;11.52;;;20.80;62.70;;;;;;4977415;28;96546;-69
2021/11/19 05:55:09;;;;;;;18.73;11.90;;;21.30;61.80;;;;;;4969402;28;95946;-58
2021/11/19 05:57:39;;;;;;;19.52;11.98;;;21.60;61.50;;;;;;4980501;28;95911;-64
2021/11/19 06:00:16;;;;;;;18.52;11.32;;;21.80;61.30;;;;;;4994281;28;96080;-65
2021/11/19 06:03:00;;;;;;;16.73;9.95;;;21.90;61.40;;;;;;4977525;28;96173;-64
2021/11/19 06:05:32;;;;;;;15.37;10.73;;;22.10;61.30;;;;;;4995698;28;96326;-56
2021/11/19 06:08:25;;;;;;;14.85;10.02;;;22.20;61.30;;;;;;4983705;28;95660;-64
2021/11/19 06:11:03;;;;;;;13.15;10.38;;;22.30;61.40;;;;;;4980566;28;96222;-59
2021/11/19 06:13:39;;;;;;;13.73;8.93;;;22.40;61.50;;;;;;4979779;28;95841;-60
2021/11/19 06:16:14;;;;;;;12.52;8.65;;;22.50;61.60;;;;;;4979670;28;95967;-59
2021/11/19 06:18:50;;;;;;;12.93;8.45;;;22.50;61.70;;;;;;4980784;28;96283;-67
2021/11/19 06:21:36;;;;;;;15.07;8.52;;;22.60;61.80;;;;;;4930862;28;98184;-66
2021/11/19 06:24:19;;;;;;;12.48;7.68;;;22.60;61.80;;;;;;4980817;28;96861;-61
2021/11/19 06:26:53;;;;;;;10.23;7.20;;;22.70;60.80;;;;;;4980103;28;95706;-64
2021/11/19 06:29:24;;;;;;;;;;;22.70;62.00;;;;;;4978776;28;95826;-61
2021/11/19 06:31:58;;;;;;;11.07;6.82;;;22.80;62.30;;;;;;4978023;28;98392;-61
2021/11/19 06:34:30;;;;;;;9.50;7.95;;;22.90;62.40;;;;;;4980587;28;97524;-63
2021/11/19 06:37:01;;;;;;;8.77;7.25;;;22.90;62.30;;;;;;4965774;28;95565;-58
2021/11/19 06:39:56;;;;;;;5.18;3.45;;;22.90;62.50;;;;;;4976980;28;96806;-61
2021/11/19 06:42:46;;;;;;;4.10;2.80;;;23.00;61.80;;;;;;4979014;28;98449;-62
2021/11/19 06:45:43;;;;;;;5.10;2.33;;;22.90;61.60;;;;;;4994727;28;95960;-62
2021/11/19 06:48:28;;;;;;;5.97;2.90;;;22.80;61.60;;;;;;4982158;28;96240;-60
2021/11/19 06:51:32;;;;;;;6.32;2.28;;;22.70;61.40;;;;;;4957685;28;95821;-62
2021/11/19 06:54:21;;;;;;;5.32;2.63;;;22.60;61.00;;;;;;4997328;28;97338;-60
2021/11/19 06:56:57;;;;;;;3.22;2.33;;;22.50;61.40;;;;;;4996000;28;96168;-59
2021/11/19 06:59:39;;;;;;;5.07;2.60;;;22.50;61.60;;;;;;4979782;28;96034;-59
2021/11/19 07:02:13;;;;;;;5.35;2.88;;;22.40;61.80;;;;;;4998298;28;95734;-60
2021/11/19 07:04:46;;;;;;;3.92;2.50;;;22.40;61.90;;;;;;4979263;28;96569;-60
2021/11/19 07:07:16;;;;;;;9.50;2.83;;;22.30;61.80;;;;;;4979393;28;95938;-60
2021/11/19 07:09:47;;;;;;;3.70;2.30;;;22.20;62.20;;;;;;4976870;28;96703;-61
2021/11/19 07:12:20;;;;;;;4.55;3.13;;;22.20;62.20;;;;;;4998773;28;97129;-60
2021/11/19 07:14:55;;;;;;;4.43;3.03;;;22.20;62.30;;;;;;4978568;28;97935;-63
2021/11/19 07:17:26;;;;;;;6.07;4.15;;;22.20;62.40;;;;;;4967922;28;97719;-61
2021/11/19 07:19:58;;;;;;;5.20;3.35;;;22.20;62.40;;;;;;4979443;28;96567;-60
2021/11/19 07:22:30;;;;;;;4.05;2.83;;;22.10;62.40;;;;;;4980925;28;95896;-60
2021/11/19 07:25:08;;;;;;;6.40;2.63;;;22.10;62.50;;;;;;4972226;28;98280;-61
2021/11/19 07:27:41;;;;;;;4.65;2.85;;;22.00;62.50;;;;;;4972212;28;95953;-61
2021/11/19 07:30:21;;;;;;;7.72;3.92;;;22.00;62.70;;;;;;4980569;28;95441;-61
2021/11/19 07:33:23;;;;;;;4.10;3.30;;;22.00;62.70;;;;;;4983674;28;96013;-63
2021/11/19 07:36:21;;;;;;;8.20;3.70;;;22.00;63.00;;;;;;4952297;28;98453;-61
2021/11/19 07:39:12;;;;;;;4.38;3.05;;;21.90;63.00;;;;;;4976704;28;97697;-62
2021/11/19 07:42:07;;;;;;;6.82;3.40;;;21.90;63.10;;;;;;4983915;28;96037;-62
2021/11/19 07:45:05;;;;;;;7.32;4.00;;;21.90;63.20;;;;;;4970694;28;96209;-62
2021/11/19 07:47:38;;;;;;;4.00;3.13;;;21.80;63.30;;;;;;4977963;28;98496;-62
2021/11/19 07:50:12;;;;;;;6.70;3.78;;;21.80;63.30;;;;;;4977383;28;97913;-62
2021/11/19 07:52:44;;;;;;;8.63;3.55;;;21.80;63.60;;;;;;4979154;28;96554;-62
2021/11/19 07:55:16;;;;;;;6.63;3.30;;;21.70;63.30;;;;;;4978238;28;95765;-62
2021/11/19 07:57:45;;;;;;;;;;;21.70;63.80;;;;;;4987334;28;96531;-61
2021/11/19 08:00:21;;;;;;;7.03;2.92;;;21.70;63.70;;;;;;4997718;28;95937;-62
2021/11/19 08:03:04;;;;;;;5.03;3.15;;;21.70;63.90;;;;;;4975845;28;95850;-64
2021/11/19 08:05:36;;;;;;;3.95;3.05;;;21.60;63.80;;;;;;4977449;28;98074;-63
2021/11/19 08:08:16;;;;;;;3.88;3.03;;;21.60;63.90;;;;;;4980784;28;97075;-63
2021/11/19 08:11:05;;;;;;;4.18;3.08;;;21.60;64.00;;;;;;5014139;28;96855;-62
2021/11/19 08:13:38;;;;;;;5.53;3.25;;;21.60;64.20;;;;;;4978870;28;95877;-63
2021/11/19 08:16:08;;;;;;;5.68;3.10;;;21.50;64.20;;;;;;4978983;28;96022;-64
2021/11/19 08:19:03;;;;;;;4.75;3.28;;;21.50;64.10;;;;;;4977593;28;96720;-64
2021/11/19 08:21:34;;;;;;;5.85;3.10;;;21.50;64.40;;;;;;4977909;28;95714;-63
2021/11/19 08:24:05;;;;;;;5.80;2.90;;;21.50;64.40;;;;;;4996444;28;95780;-64
2021/11/19 08:26:41;;;;;;;4.63;2.53;;;21.40;64.60;;;;;;4994108;28;96053;-64
2021/11/19 08:29:18;;;;;;;3.72;2.40;;;21.40;64.60;;;;;;4992744;28;96128;-63
2021/11/19 08:31:50;;;;;;;3.95;2.88;;;21.40;63.50;;;;;;4993203;28;96004;-63
2021/11/19 08:34:23;;;;;;;4.63;3.38;;;21.30;65.00;;;;;;4987926;28;95806;-62
2021/11/19 08:36:55;;;;;;;4.75;2.97;;;21.30;65.20;;;;;;4982280;28;95885;-63
2021/11/19 08:39:27;;;;;;;4.68;2.50;;;21.30;65.40;;;;;;4995772;28;96491;-62
2021/11/19 08:41:59;;;;;;;3.80;2.88;;;21.20;65.30;;;;;;4995778;28;95527;-63
2021/11/19 08:44:28;;;;;;;;;;;21.20;65.60;;;;;;4996695;28;96290;-62
2021/11/19 08:47:17;;;;;;;3.90;2.95;;;21.20;65.50;;;;;;4999431;28;95498;-63
2021/11/19 08:49:50;;;;;;;2.97;2.60;;;21.20;65.80;;;;;;4995104;28;96195;-63
2021/11/19 08:52:22;;;;;;;4.53;2.72;;;21.10;65.60;;;;;;4996542;28;95818;-63
2021/11/19 08:54:54;;;;;;;3.25;2.47;;;21.10;66.00;;;;;;4996601;28;96722;-62
2021/11/19 08:57:27;;;;;;;2.75;2.30;;;21.10;65.80;;;;;;5001901;28;95716;-64
2021/11/19 08:59:59;;;;;;;2.72;1.98;;;21.10;66.10;;;;;;4998338;28;96755;-63
2021/11/19 09:02:29;;;;;;;4.35;2.53;;;21.00;65.80;;;;;;4999380;28;96114;-64
2021/11/19 09:05:04;;;;;;;4.95;3.30;;;21.00;66.20;;;;;;4992858;28;95690;-63
2021/11/19 09:07:38;;;;;;;4.15;2.20;;;21.00;66.00;;;;;;4963666;28;96611;-61
2021/11/19 09:10:13;;;;;;;3.22;2.22;;;21.00;66.30;;;;;;4988860;28;96396;-61
2021/11/19 09:12:45;;;;;;;2.53;1.88;;;20.90;66.10;;;;;;4998048;28;96111;-61
2021/11/19 09:15:18;;;;;;;4.88;2.53;;;20.90;66.20;;;;;;5001987;28;95273;-60
2021/11/19 09:17:54;;;;;;;5.55;2.60;;;20.80;66.10;;;;;;5006861;28;95982;-61
2021/11/19 09:20:59;;;;;;;5.35;2.47;;;20.80;66.20;;;;;;5012217;28;96125;-62
2021/11/19 09:23:44;;;;;;;5.10;2.22;;;20.70;66.30;;;;;;5010459;28;96238;-62
2021/11/19 09:26:19;;;;;;;3.78;2.33;;;20.60;66.70;;;;;;5009040;28;95891;-61
2021/11/19 09:28:53;;;;;;;3.65;2.10;;;20.60;66.90;;;;;;5012268;28;95600;-61
2021/11/19 09:31:25;;;;;;;4.47;2.08;;;20.50;67.10;;;;;;4992659;28;96706;-61
2021/11/19 09:33:57;;;;;;;5.82;1.92;;;20.50;67.00;;;;;;5008379;28;95504;-61
2021/11/19 09:36:32;;;;;;;2.70;2.20;;;20.40;67.20;;;;;;4992672;28;95929;-60
2021/11/19 09:39:09;;;;;;;2.63;1.95;;;20.40;67.30;;;;;;4999322;28;96639;-60
2021/11/19 09:41:58;;;;;;;2.53;1.83;;;20.30;67.50;;;;;;4990724;28;96473;-62
2021/11/19 09:44:51;;;;;;;2.83;2.22;;;20.30;67.50;;;;;;4989745;28;95732;-60
2021/11/19 09:48:09;;;;;;;5.18;2.25;;;20.30;67.60;;;;;;4992717;28;96677;-61
2021/11/19 09:50:49;;;;;;;3.00;2.30;;;20.20;67.60;;;;;;4985834;28;95859;-61
2021/11/19 09:53:20;;;;;;;3.30;3.00;;;20.20;67.70;;;;;;5011261;28;98350;-63
2021/11/19 09:56:00;;;;;;;3.88;3.03;;;20.20;67.90;;;;;;5010205;28;97767;-63
2021/11/19 09:58:37;;;;;;;2.70;2.10;;;20.10;67.90;;;;;;5008984;28;97270;-63
2021/11/19 10:01:26;;;;;;;4.65;2.47;;;20.10;68.00;;;;;;4989588;28;95403;-62
2021/11/19 10:04:34;;;;;;;5.13;3.00;;;20.00;68.00;;;;;;5013397;28;96777;-62
2021/11/19 10:07:28;;;;;;;4.30;2.20;;;20.00;68.10;;;;;;5001388;28;95481;-62
2021/11/19 10:10:26;;;;;;;4.82;2.33;;;20.00;68.20;;;;;;5007437;28;95701;-63
2021/11/19 10:13:01;;;;;;;5.53;2.72;;;19.90;68.30;;;;;;5007816;28;95709;-61
2021/11/19 10:16:08;;;;;;;5.50;2.90;;;19.90;68.30;;;;;;5007422;28;96776;-63
2021/11/19 10:18:54;;;;;;;4.50;2.63;;;19.90;68.40;;;;;;5014691;28;98060;-62
2021/11/19 10:21:34;;;;;;;6.78;2.80;;;19.80;68.50;;;;;;5012594;28;95745;-62
2021/11/19 10:24:29;;;;;;;8.18;2.85;;;19.80;68.50;;;;;;4995600;28;95945;-62
2021/11/19 10:26:59;;;;;;;5.43;2.63;;;19.80;68.50;;;;;;5007522;28;96097;-62
2021/11/19 10:29:45;;;;;;;5.47;2.50;;;19.70;68.60;;;;;;5006894;28;95850;-62
2021/11/19 10:32:20;;;;;;;4.72;2.63;;;19.70;68.60;;;;;;5006795;28;95868;-62
2021/11/19 10:35:24;;;;;;;2.28;1.85;;;19.70;68.80;;;;;;5012219;28;95903;-63
2021/11/19 10:38:20;;;;;;;5.20;2.53;;;19.70;68.70;;;;;;4987130;28;96547;-62
2021/11/19 10:41:17;;;;;;;5.70;2.17;;;19.60;68.80;;;;;;5011174;28;95477;-61
2021/11/19 10:44:02;;;;;;;5.40;2.55;;;19.60;68.80;;;;;;5006211;28;95625;-62
2021/11/19 10:47:06;;;;;;;5.18;3.17;;;19.60;68.90;;;;;;5011413;28;95530;-62
2021/11/19 10:49:49;;;;;;;5.20;2.90;;;19.50;68.90;;;;;;5008653;28;96021;-63
2021/11/19 10:52:40;;;;;;;4.85;2.92;;;19.50;68.90;;;;;;5010770;28;95668;-63
2021/11/19 10:55:38;;;;;;;3.65;2.22;;;19.50;68.90;;;;;;4957889;28;95691;-61
2021/11/19 10:58:27;;;;;;;4.00;2.70;;;19.40;69.30;;;;;;5002957;28;95709;-62
2021/11/19 11:01:11;;;;;;;4.25;2.80;;;19.40;69.10;;;;;;5009772;28;96015;-61
2021/11/19 11:04:04;;;;;;;5.40;2.50;;;19.40;69.20;;;;;;5012777;28;95873;-60
2021/11/19 11:06:43;;;;;;;5.05;3.92;;;19.40;69.30;;;;;;5015691;28;95682;-62
2021/11/19 11:09:26;;;;;;;5.07;2.70;;;19.30;69.10;;;;;;5007940;28;95895;-61
2021/11/19 11:12:18;;;;;;;8.13;3.35;;;19.30;69.20;;;;;;5017689;28;96072;-61
2021/11/19 11:15:09;;;;;;;4.05;2.55;;;19.30;69.30;;;;;;5008688;28;95909;-60
2021/11/19 11:17:56;;;;;;;3.75;2.45;;;19.20;69.30;;;;;;5008818;28;95498;-63
2021/11/19 11:20:56;;;;;;;4.55;2.45;;;19.20;69.40;;;;;;5016467;28;95729;-61
2021/11/19 11:23:51;;;;;;;4.35;2.83;;;19.20;69.40;;;;;;5004057;28;96699;-60
2021/11/19 11:26:26;;;;;;;5.85;2.85;;;19.20;69.40;;;;;;5002686;28;95998;-61
2021/11/19 11:29:20;;;;;;;4.65;2.28;;;19.10;69.50;;;;;;5015785;28;95838;-61
2021/11/19 11:32:04;;;;;;;4.60;2.65;;;19.10;69.60;;;;;;5007540;28;95792;-61
2021/11/19 11:34:59;;;;;;;3.47;2.13;;;19.10;69.50;;;;;;5004533;28;96437;-61
2021/11/19 11:37:56;;;;;;;5.35;2.75;;;19.10;69.70;;;;;;4990827;28;95783;-61
2021/11/19 11:40:30;;;;;;;4.20;2.25;;;19.00;69.60;;;;;;5014199;28;96293;-61
2021/11/19 11:43:26;;;;;;;5.03;2.25;;;19.00;69.60;;;;;;5007521;28;95747;-61
2021/11/19 11:46:01;;;;;;;6.18;2.92;;;19.00;69.70;;;;;;5002949;28;97733;-62
2021/11/19 11:48:41;;;;;;;5.75;2.50;;;19.00;69.60;;;;;;5007441;28;96612;-61
2021/11/19 11:51:38;;;;;;;5.32;2.33;;;19.00;69.70;;;;;;5005255;28;96078;-62
2021/11/19 11:54:20;;;;;;;3.00;2.10;;;18.90;69.10;;;;;;5007597;28;95937;-61
2021/11/19 11:57:22;;;;;;;6.15;2.55;;;18.90;69.70;;;;;;5007121;28;96836;-63
2021/11/19 12:00:06;;;;;;;5.82;2.70;;;18.90;69.70;;;;;;5005890;28;96669;-62
2021/11/19 12:02:54;;;;;;;5.00;2.42;;;18.80;69.70;;;;;;5006787;28;95629;-61
2021/11/19 12:05:37;;;;;;;4.43;2.10;;;18.80;69.80;;;;;;5001342;28;95394;-63
2021/11/19 12:08:53;;;;;;;6.07;2.67;;;18.80;69.80;;;;;;4985901;28;96451;-61
2021/11/19 12:11:44;;;;;;;5.22;2.78;;;18.80;69.80;;;;;;5003589;28;95540;-61
2021/11/19 12:14:37;;;;;;;3.22;1.95;;;18.70;69.80;;;;;;5007073;28;96029;-61
2021/11/19 12:17:31;;;;;;;4.72;1.90;;;18.70;69.80;;;;;;5008228;28;95532;-60
2021/11/19 12:20:19;;;;;;;4.47;2.13;;;18.70;69.70;;;;;;5007496;28;96118;-60
2021/11/19 12:23:04;;;;;;;4.18;2.10;;;18.70;69.70;;;;;;5007191;28;96143;-62
2021/11/19 12:26:02;;;;;;;4.28;2.25;;;18.60;69.70;;;;;;5004212;28;95723;-61
2021/11/19 12:28:44;;;;;;;3.47;2.00;;;18.60;69.80;;;;;;5001867;28;95857;-61
2021/11/19 12:31:33;;;;;;;5.45;2.20;;;18.60;69.80;;;;;;5006217;28;95988;-61
2021/11/19 12:34:26;;;;;;;2.95;2.00;;;18.60;69.80;;;;;;5005871;28;96878;-62
2021/11/19 12:37:05;;;;;;;2.58;2.00;;;18.60;69.90;;;;;;4986831;28;95826;-61
2021/11/19 12:39:41;;;;;;;5.28;2.08;;;18.50;69.80;;;;;;5007605;28;95641;-61
2021/11/19 12:42:40;;;;;;;3.50;2.05;;;18.50;69.90;;;;;;4998430;28;96030;-61
2021/11/19 12:45:23;;;;;;;2.75;1.88;;;18.50;69.90;;;;;;5005468;28;95744;-61
2021/11/19 12:48:31;;;;;;;2.97;1.92;;;18.50;69.90;;;;;;4992053;28;95823;-61
2021/11/19 12:51:03;;;;;;;1.80;1.30;;;18.40;69.80;;;;;;5006424;28;95712;-61
2021/11/19 12:54:03;;;;;;;3.83;1.93;;;18.40;69.80;;;;;;5009169;28;96444;-61
2021/11/19 12:56:54;;;;;;;3.83;1.48;;;18.40;69.90;;;;;;5004179;28;95489;-62
2021/11/19 12:59:51;;;;;;;2.00;1.65;;;18.40;70.00;;;;;;4989235;28;95968;-63
2021/11/19 13:02:32;;;;;;;3.17;2.22;;;18.40;70.00;;;;;;5008625;28;95510;-62
2021/11/19 13:05:11;;;;;;;3.88;1.98;;;18.30;70.00;;;;;;5006412;28;96048;-61
2021/11/19 13:07:43;;;;;;;2.13;1.65;;;18.30;70.00;;;;;;5008573;28;96091;-63
2021/11/19 13:10:16;;;;;;;3.45;1.73;;;18.30;70.00;;;;;;5005964;28;95216;-59
2021/11/19 13:13:20;;;;;;;2.88;1.77;;;18.30;70.10;;;;;;5007314;28;95750;-62
2021/11/19 13:16:31;;;;;;;3.10;1.23;;;18.30;69.50;;;;;;5009629;28;95847;-61
2021/11/19 13:19:04;;;;;;;3.22;1.50;;;18.20;70.00;;;;;;5002887;28;96105;-62
2021/11/19 13:21:40;;;;;;;2.85;1.45;;;18.20;70.10;;;;;;5007620;28;95820;-62
2021/11/19 13:24:13;;;;;;;3.47;1.48;;;18.20;70.10;;;;;;5010173;28;97911;-62
2021/11/19 13:26:54;;;;;;;6.40;1.73;;;18.20;70.10;;;;;;5009289;28;96476;-61
2021/11/19 13:29:42;;;;;;;2.63;1.70;;;18.20;70.10;;;;;;4987886;28;96166;-62
2021/11/19 13:32:20;;;;;;;2.40;1.42;;;18.20;70.10;;;;;;5005796;28;95987;-63
2021/11/19 13:35:18;;;;;;;2.72;1.70;;;18.10;70.10;;;;;;5006799;28;95832;-62
2021/11/19 13:38:03;;;;;;;2.92;1.45;;;18.10;70.20;;;;;;4970802;28;97451;-61
2021/11/19 13:40:37;;;;;;;2.40;1.38;;;18.10;68.80;;;;;;5009113;28;96157;-61
2021/11/19 13:43:12;;;;;;;4.85;1.85;;;18.10;70.20;;;;;;5011335;28;95905;-61
2021/11/19 13:46:17;;;;;;;2.75;1.60;;;18.10;70.20;;;;;;5010771;28;95593;-62
2021/11/19 13:49:04;;;;;;;2.03;1.35;;;18.10;70.20;;;;;;4984677;28;95771;-62
2021/11/19 13:51:50;;;;;;;3.65;1.90;;;18.10;70.20;;;;;;5006211;28;96312;-62
2021/11/19 13:54:37;;;;;;;4.13;1.70;;;18.00;70.20;;;;;;5006480;28;95528;-61
2021/11/19 13:57:11;;;;;;;2.92;1.38;;;18.00;68.90;;;;;;5005392;28;95771;-61
2021/11/19 13:59:51;;;;;;;1.65;1.25;;;18.00;70.30;;;;;;5009222;28;96240;-61